> <
  • 1
  • 2

Novidades

  • Temos o prazer de lhe apresentar… Ler mais +
  • Está disponível a secção Multimédia no… Ler mais +
  • 1
[source: ADDS]
METAR
LPPR 111300Z 34014KT 9999 VCSH SCT020 FEW027CB BKN049 10/07 Q1001 =
TAF
TAF LPPR 111100Z 1112/1212 35015KT 9999 SCT018 TEMPO 1112/1118 32020G30KT 8000 SHRA SCT010 BKN015 FEW018CB PROB30 TEMPO 1112/1115 35025G35KT 3000 TSRAGS SCT016CB BECMG 1118/1121 09005KT BECMG 1209/1212 VRB03KT =

contactos